sensor_id;sensor_type;location;lat;lon;timestamp;pressure;altitude;pressure_sealevel;temperature;humidity
74552;BME280;63025;55.472;38.432;2022-10-16T00:01:16;101526.78;;;2.46;77.94
74552;BME280;63025;55.472;38.432;2022-10-16T00:03:43;101518.22;;;2.43;78.00
74552;BME280;63025;55.472;38.432;2022-10-16T00:06:10;101520.88;;;2.43;77.50
74552;BME280;63025;55.472;38.432;2022-10-16T00:08:37;101536.19;;;2.39;77.73
74552;BME280;63025;55.472;38.432;2022-10-16T00:11:09;101527.75;;;2.34;77.47
74552;BME280;63025;55.472;38.432;2022-10-16T00:13:38;101534.88;;;2.34;77.88
74552;BME280;63025;55.472;38.432;2022-10-16T00:16:05;101534.13;;;2.32;77.82
74552;BME280;63025;55.472;38.432;2022-10-16T00:18:31;101535.34;;;2.28;77.47
74552;BME280;63025;55.472;38.432;2022-10-16T00:21:18;101537.28;;;2.26;77.90
74552;BME280;63025;55.472;38.432;2022-10-16T00:24:06;101536.53;;;2.24;77.48
74552;BME280;63025;55.472;38.432;2022-10-16T00:26:34;101533.38;;;2.18;77.08
74552;BME280;63025;55.472;38.432;2022-10-16T00:29:00;101533.53;;;2.17;77.23
74552;BME280;63025;55.472;38.432;2022-10-16T00:31:27;101539.19;;;2.12;77.69
74552;BME280;63025;55.472;38.432;2022-10-16T00:33:53;101540.13;;;2.11;77.68
74552;BME280;63025;55.472;38.432;2022-10-16T00:36:21;101543.16;;;2.07;77.66
74552;BME280;63025;55.472;38.432;2022-10-16T00:38:50;101538.19;;;2.02;77.90
74552;BME280;63025;55.472;38.432;2022-10-16T00:41:19;101545.41;;;2.00;77.84
74552;BME280;63025;55.472;38.432;2022-10-16T00:43:53;101540.22;;;1.99;77.29
74552;BME280;63025;55.472;38.432;2022-10-16T00:46:23;101548.31;;;1.97;78.13
74552;BME280;63025;55.472;38.432;2022-10-16T00:51:30;101544.22;;;1.93;77.78
74552;BME280;63025;55.472;38.432;2022-10-16T00:53:59;101546.84;;;1.93;78.33
74552;BME280;63025;55.472;38.432;2022-10-16T00:56:25;101552.38;;;1.90;78.45
74552;BME280;63025;55.472;38.432;2022-10-16T00:58:51;101545.38;;;1.89;78.73
74552;BME280;63025;55.472;38.432;2022-10-16T01:01:17;101543.69;;;1.88;79.17
74552;BME280;63025;55.472;38.432;2022-10-16T01:03:43;101550.81;;;1.88;78.79
74552;BME280;63025;55.472;38.432;2022-10-16T01:14:17;101549.69;;;1.79;78.85
74552;BME280;63025;55.472;38.432;2022-10-16T01:16:54;101555.97;;;1.78;79.15
74552;BME280;63025;55.472;38.432;2022-10-16T01:19:50;101550.41;;;1.70;78.27
74552;BME280;63025;55.472;38.432;2022-10-16T01:22:20;101558.00;;;1.74;77.96
74552;BME280;63025;55.472;38.432;2022-10-16T01:24:49;101560.88;;;1.71;79.02
74552;BME280;63025;55.472;38.432;2022-10-16T01:27:22;101567.16;;;1.70;78.65
74552;BME280;63025;55.472;38.432;2022-10-16T01:30:06;101560.50;;;1.65;78.63
74552;BME280;63025;55.472;38.432;2022-10-16T01:32:42;101568.47;;;1.65;77.93
74552;BME280;63025;55.472;38.432;2022-10-16T01:40:19;101569.75;;;1.59;78.60
74552;BME280;63025;55.472;38.432;2022-10-16T01:42:54;101569.84;;;1.58;78.78
74552;BME280;63025;55.472;38.432;2022-10-16T01:45:22;101571.91;;;1.54;78.42
74552;BME280;63025;55.472;38.432;2022-10-16T01:47:49;101574.88;;;1.50;78.13
74552;BME280;63025;55.472;38.432;2022-10-16T01:50:19;101579.44;;;1.47;78.72
74552;BME280;63025;55.472;38.432;2022-10-16T01:52:49;101577.75;;;1.46;78.38
74552;BME280;63025;55.472;38.432;2022-10-16T01:55:19;101577.75;;;1.46;78.83
74552;BME280;63025;55.472;38.432;2022-10-16T01:57:50;101580.41;;;1.46;79.52
74552;BME280;63025;55.472;38.432;2022-10-16T02:00:19;101581.34;;;1.45;78.65
74552;BME280;63025;55.472;38.432;2022-10-16T02:02:49;101590.28;;;1.44;78.89
74552;BME280;63025;55.472;38.432;2022-10-16T02:05:32;101586.91;;;1.42;79.34
74552;BME280;63025;55.472;38.432;2022-10-16T02:07:59;101583.72;;;1.37;78.80
74552;BME280;63025;55.472;38.432;2022-10-16T02:10:26;101592.75;;;1.35;77.98
74552;BME280;63025;55.472;38.432;2022-10-16T02:13:23;101591.19;;;1.32;78.96
74552;BME280;63025;55.472;38.432;2022-10-16T02:15:52;101588.75;;;1.29;78.18
74552;BME280;63025;55.472;38.432;2022-10-16T02:18:20;101595.00;;;1.28;78.96
74552;BME280;63025;55.472;38.432;2022-10-16T02:26:43;101595.94;;;1.27;78.76
74552;BME280;63025;55.472;38.432;2022-10-16T02:29:14;101601.34;;;1.26;79.24
74552;BME280;63025;55.472;38.432;2022-10-16T02:31:46;101590.38;;;1.19;79.07
74552;BME280;63025;55.472;38.432;2022-10-16T02:34:14;101604.25;;;1.23;79.23
74552;BME280;63025;55.472;38.432;2022-10-16T02:36:42;101596.84;;;1.15;79.29
74552;BME280;63025;55.472;38.432;2022-10-16T02:39:10;101597.56;;;1.17;79.45
74552;BME280;63025;55.472;38.432;2022-10-16T02:41:36;101605.53;;;1.17;79.50
74552;BME280;63025;55.472;38.432;2022-10-16T02:44:02;101600.47;;;1.14;79.05
74552;BME280;63025;55.472;38.432;2022-10-16T02:46:28;101598.78;;;1.13;79.23
74552;BME280;63025;55.472;38.432;2022-10-16T02:48:54;101603.22;;;1.13;79.14
74552;BME280;63025;55.472;38.432;2022-10-16T02:51:20;101601.53;;;1.12;79.60
74552;BME280;63025;55.472;38.432;2022-10-16T02:53:46;101607.88;;;1.09;78.79
74552;BME280;63025;55.472;38.432;2022-10-16T02:56:11;101610.53;;;1.09;78.78
74552;BME280;63025;55.472;38.432;2022-10-16T02:58:37;101607.88;;;1.09;79.74
74552;BME280;63025;55.472;38.432;2022-10-16T03:01:03;101613.16;;;1.09;78.97
74552;BME280;63025;55.472;38.432;2022-10-16T03:03:29;101607.13;;;1.07;78.47
74552;BME280;63025;55.472;38.432;2022-10-16T03:05:55;101612.44;;;1.07;79.31
74552;BME280;63025;55.472;38.432;2022-10-16T03:08:21;101608.09;;;1.06;79.47
74552;BME280;63025;55.472;38.432;2022-10-16T03:10:50;101607.34;;;1.04;78.97
74552;BME280;63025;55.472;38.432;2022-10-16T03:13:15;101613.63;;;1.03;78.88
74552;BME280;63025;55.472;38.432;2022-10-16T03:15:41;101618.28;;;0.99;79.41
74552;BME280;63025;55.472;38.432;2022-10-16T03:18:07;101616.69;;;0.97;79.23
74552;BME280;63025;55.472;38.432;2022-10-16T03:20:33;101619.34;;;0.97;79.51
74552;BME280;63025;55.472;38.432;2022-10-16T03:22:59;101622.09;;;0.95;78.75
74552;BME280;63025;55.472;38.432;2022-10-16T03:25:25;101622.31;;;0.92;79.08
74552;BME280;63025;55.472;38.432;2022-10-16T03:27:50;101618.84;;;0.92;78.76
74552;BME280;63025;55.472;38.432;2022-10-16T03:30:16;101615.53;;;0.88;78.69
74552;BME280;63025;55.472;38.432;2022-10-16T03:32:44;101620.00;;;0.88;79.12
74552;BME280;63025;55.472;38.432;2022-10-16T03:35:10;101616.84;;;0.83;79.30
74552;BME280;63025;55.472;38.432;2022-10-16T03:37:36;101622.94;;;0.83;79.00
74552;BME280;63025;55.472;38.432;2022-10-16T03:40:03;101630.88;;;0.83;78.51
74552;BME280;63025;55.472;38.432;2022-10-16T03:42:29;101632.94;;;0.80;78.91
74552;BME280;63025;55.472;38.432;2022-10-16T03:44:55;101635.47;;;0.81;79.44
74552;BME280;63025;55.472;38.432;2022-10-16T03:47:21;101634.63;;;0.81;79.09
74552;BME280;63025;55.472;38.432;2022-10-16T03:49:49;101633.88;;;0.79;78.29
74552;BME280;63025;55.472;38.432;2022-10-16T03:52:16;101641.81;;;0.79;78.88
74552;BME280;63025;55.472;38.432;2022-10-16T03:54:42;101637.56;;;0.76;78.61
74552;BME280;63025;55.472;38.432;2022-10-16T03:57:07;101643.72;;;0.77;79.45
74552;BME280;63025;55.472;38.432;2022-10-16T03:59:33;101640.31;;;0.74;79.16
74552;BME280;63025;55.472;38.432;2022-10-16T04:01:59;101641.16;;;0.75;79.65
74552;BME280;63025;55.472;38.432;2022-10-16T04:04:25;101631.53;;;0.74;78.45
74552;BME280;63025;55.472;38.432;2022-10-16T04:06:51;101646.47;;;0.75;78.24
74552;BME280;63025;55.472;38.432;2022-10-16T04:09:17;101636.72;;;0.76;79.00
74552;BME280;63025;55.472;38.432;2022-10-16T04:11:43;101640.31;;;0.74;78.69
74552;BME280;63025;55.472;38.432;2022-10-16T04:14:09;101643.91;;;0.73;79.06
74552;BME280;63025;55.472;38.432;2022-10-16T04:16:34;101643.72;;;0.77;79.03
74552;BME280;63025;55.472;38.432;2022-10-16T04:19:00;101644.47;;;0.79;79.08
74552;BME280;63025;55.472;38.432;2022-10-16T04:21:26;101651.34;;;0.81;79.34
74552;BME280;63025;55.472;38.432;2022-10-16T04:23:52;101633.13;;;0.77;78.98
74552;BME280;63025;55.472;38.432;2022-10-16T04:26:18;101647.50;;;0.85;79.46
74552;BME280;63025;55.472;38.432;2022-10-16T04:28:44;101647.31;;;0.88;78.43
74552;BME280;63025;55.472;38.432;2022-10-16T04:31:09;101646.25;;;0.91;78.82
74552;BME280;63025;55.472;38.432;2022-10-16T04:33:35;101650.25;;;0.96;78.33
74552;BME280;63025;55.472;38.432;2022-10-16T04:36:02;101651.84;;;0.99;79.11
74552;BME280;63025;55.472;38.432;2022-10-16T04:38:28;101652.59;;;1.01;79.06
74552;BME280;63025;55.472;38.432;2022-10-16T04:40:55;101651.28;;;1.06;78.49
74552;BME280;63025;55.472;38.432;2022-10-16T04:43:21;101656.16;;;1.13;79.11
74552;BME280;63025;55.472;38.432;2022-10-16T04:45:50;101650.44;;;1.19;79.08
74552;BME280;63025;55.472;38.432;2022-10-16T04:48:17;101645.53;;;1.25;78.54
74552;BME280;63025;55.472;38.432;2022-10-16T04:50:43;101646.78;;;1.32;79.10
74552;BME280;63025;55.472;38.432;2022-10-16T04:53:09;101656.72;;;1.41;78.88
74552;BME280;63025;55.472;38.432;2022-10-16T04:55:34;101651.72;;;1.50;79.42
74552;BME280;63025;55.472;38.432;2022-10-16T04:58:01;101653.94;;;1.56;78.73
74552;BME280;63025;55.472;38.432;2022-10-16T05:00:26;101644.56;;;1.63;78.91
74552;BME280;63025;55.472;38.432;2022-10-16T05:02:53;101650.13;;;1.71;79.86
74552;BME280;63025;55.472;38.432;2022-10-16T05:05:19;101649.47;;;1.80;79.40
74552;BME280;63025;55.472;38.432;2022-10-16T05:07:46;101656.72;;;1.89;79.42
74552;BME280;63025;55.472;38.432;2022-10-16T05:10:12;101654.97;;;2.01;79.57
74552;BME280;63025;55.472;38.432;2022-10-16T05:12:38;101660.44;;;2.10;79.79
74552;BME280;63025;55.472;38.432;2022-10-16T05:15:04;101662.16;;;2.22;79.20
74552;BME280;63025;55.472;38.432;2022-10-16T05:17:30;101660.28;;;2.36;79.97
74552;BME280;63025;55.472;38.432;2022-10-16T05:19:56;101658.38;;;2.49;79.07
74552;BME280;63025;55.472;38.432;2022-10-16T05:22:22;101671.78;;;2.58;79.16
74552;BME280;63025;55.472;38.432;2022-10-16T05:24:48;101669.97;;;2.70;79.60
74552;BME280;63025;55.472;38.432;2022-10-16T05:27:14;101673.25;;;2.85;79.72
74552;BME280;63025;55.472;38.432;2022-10-16T05:29:48;101674.84;;;2.99;79.86
74552;BME280;63025;55.472;38.432;2022-10-16T05:32:15;101665.66;;;3.14;79.13
74552;BME280;63025;55.472;38.432;2022-10-16T05:34:42;101662.75;;;3.28;79.08
74552;BME280;63025;55.472;38.432;2022-10-16T05:37:08;101669.47;;;3.43;79.19
74552;BME280;63025;55.472;38.432;2022-10-16T05:39:34;101673.34;;;3.61;78.44
74552;BME280;63025;55.472;38.432;2022-10-16T05:42:02;101672.78;;;3.79;78.04
74552;BME280;63025;55.472;38.432;2022-10-16T05:44:28;101675.28;;;3.91;77.48
74552;BME280;63025;55.472;38.432;2022-10-16T05:46:54;101668.38;;;4.00;77.07
74552;BME280;63025;55.472;38.432;2022-10-16T05:49:20;101681.94;;;4.18;76.80
74552;BME280;63025;55.472;38.432;2022-10-16T05:51:46;101687.09;;;4.30;76.48
74552;BME280;63025;55.472;38.432;2022-10-16T05:54:12;101682.69;;;4.40;75.34
74552;BME280;63025;55.472;38.432;2022-10-16T05:56:38;101691.91;;;4.57;74.81
74552;BME280;63025;55.472;38.432;2022-10-16T05:59:04;101690.59;;;4.72;74.71
74552;BME280;63025;55.472;38.432;2022-10-16T06:01:30;101688.28;;;4.89;74.68
74552;BME280;63025;55.472;38.432;2022-10-16T06:03:57;101692.00;;;4.97;74.03
74552;BME280;63025;55.472;38.432;2022-10-16T06:06:26;101693.59;;;5.09;73.07
74552;BME280;63025;55.472;38.432;2022-10-16T06:08:54;101686.22;;;5.23;73.08
74552;BME280;63025;55.472;38.432;2022-10-16T06:11:23;101690.34;;;5.36;72.24
74552;BME280;63025;55.472;38.432;2022-10-16T06:13:53;101685.91;;;5.56;72.31
74552;BME280;63025;55.472;38.432;2022-10-16T06:16:20;101694.22;;;5.72;71.82
74552;BME280;63025;55.472;38.432;2022-10-16T06:18:46;101683.75;;;5.90;71.34
74552;BME280;63025;55.472;38.432;2022-10-16T06:21:22;101687.28;;;6.00;70.71
74552;BME280;63025;55.472;38.432;2022-10-16T06:23:51;101678.56;;;6.08;69.85
74552;BME280;63025;55.472;38.432;2022-10-16T06:26:18;101688.13;;;6.20;69.66
74552;BME280;63025;55.472;38.432;2022-10-16T06:28:46;101686.03;;;6.43;69.15
74552;BME280;63025;55.472;38.432;2022-10-16T06:31:12;101693.41;;;6.68;68.92
74552;BME280;63025;55.472;38.432;2022-10-16T06:33:39;101695.19;;;6.87;68.47
74552;BME280;63025;55.472;38.432;2022-10-16T06:36:10;101697.84;;;6.96;66.63
74552;BME280;63025;55.472;38.432;2022-10-16T06:38:37;101698.06;;;7.13;66.60
74552;BME280;63025;55.472;38.432;2022-10-16T06:41:04;101696.03;;;7.34;65.66
74552;BME280;63025;55.472;38.432;2022-10-16T06:43:31;101699.09;;;7.66;64.92
74552;BME280;63025;55.472;38.432;2022-10-16T06:45:58;101698.44;;;8.00;63.25
74552;BME280;63025;55.472;38.432;2022-10-16T06:48:25;101703.28;;;8.32;61.90
74552;BME280;63025;55.472;38.432;2022-10-16T06:53:30;101695.34;;;9.51;59.15
74552;BME280;63025;55.472;38.432;2022-10-16T06:55:56;101699.25;;;10.23;57.08
74552;BME280;63025;55.472;38.432;2022-10-16T06:58:23;101696.19;;;10.83;54.93
74552;BME280;63025;55.472;38.432;2022-10-16T07:00:55;101706.03;;;11.15;52.97
74552;BME280;63025;55.472;38.432;2022-10-16T07:03:22;101702.97;;;11.82;51.93
74552;BME280;63025;55.472;38.432;2022-10-16T07:05:48;101710.13;;;12.43;50.09
74552;BME280;63025;55.472;38.432;2022-10-16T07:08:14;101710.38;;;12.71;48.08
74552;BME280;63025;55.472;38.432;2022-10-16T07:10:40;101702.81;;;13.04;47.31
74552;BME280;63025;55.472;38.432;2022-10-16T07:13:06;101700.59;;;13.51;46.39
74552;BME280;63025;55.472;38.432;2022-10-16T07:15:33;101699.44;;;14.11;45.15
74552;BME280;63025;55.472;38.432;2022-10-16T07:17:59;101694.84;;;14.76;44.67
74552;BME280;63025;55.472;38.432;2022-10-16T07:20:25;101698.91;;;15.21;43.03
74552;BME280;63025;55.472;38.432;2022-10-16T07:22:51;101698.50;;;15.58;41.45
74552;BME280;63025;55.472;38.432;2022-10-16T07:25:18;101701.81;;;15.54;40.81
74552;BME280;63025;55.472;38.432;2022-10-16T07:27:43;101702.25;;;16.11;40.26
74552;BME280;63025;55.472;38.432;2022-10-16T07:30:10;101704.41;;;16.49;39.25
74552;BME280;63025;55.472;38.432;2022-10-16T07:32:36;101700.00;;;16.61;38.54
74552;BME280;63025;55.472;38.432;2022-10-16T07:35:02;101703.34;;;17.03;38.11
74552;BME280;63025;55.472;38.432;2022-10-16T07:37:28;101709.50;;;17.56;37.38
74552;BME280;63025;55.472;38.432;2022-10-16T07:39:54;101700.59;;;17.87;36.48
74552;BME280;63025;55.472;38.432;2022-10-16T07:42:20;101707.06;;;18.62;36.61
74552;BME280;63025;55.472;38.432;2022-10-16T07:44:46;101712.75;;;18.54;35.17
74552;BME280;63025;55.472;38.432;2022-10-16T07:47:12;101709.75;;;19.12;34.87
74552;BME280;63025;55.472;38.432;2022-10-16T07:49:38;101717.72;;;19.13;34.44
74552;BME280;63025;55.472;38.432;2022-10-16T07:52:04;101709.66;;;19.79;33.96
74552;BME280;63025;55.472;38.432;2022-10-16T07:54:29;101708.66;;;20.22;32.98
74552;BME280;63025;55.472;38.432;2022-10-16T07:56:55;101703.56;;;20.91;32.76
74552;BME280;63025;55.472;38.432;2022-10-16T07:59:21;101700.47;;;20.87;31.75
74552;BME280;63025;55.472;38.432;2022-10-16T08:01:49;101713.91;;;21.12;31.35
74552;BME280;63025;55.472;38.432;2022-10-16T08:04:15;101710.31;;;21.58;31.05
74552;BME280;63025;55.472;38.432;2022-10-16T08:06:41;101707.09;;;21.49;30.47
74552;BME280;63025;55.472;38.432;2022-10-16T08:09:08;101706.97;;;21.96;29.93
74552;BME280;63025;55.472;38.432;2022-10-16T08:11:34;101709.25;;;22.27;29.35
74552;BME280;63025;55.472;38.432;2022-10-16T08:14:00;101706.09;;;22.19;28.82
74552;BME280;63025;55.472;38.432;2022-10-16T08:16:26;101711.75;;;22.29;28.51
74552;BME280;63025;55.472;38.432;2022-10-16T08:18:52;101705.47;;;21.48;28.60
74552;BME280;63025;55.472;38.432;2022-10-16T08:21:20;101696.53;;;21.53;29.07
74552;BME280;63025;55.472;38.432;2022-10-16T08:23:52;101698.53;;;22.43;28.77
74552;BME280;63025;55.472;38.432;2022-10-16T08:26:18;101696.47;;;23.17;27.93
74552;BME280;63025;55.472;38.432;2022-10-16T08:28:44;101692.03;;;23.32;27.05
74552;BME280;63025;55.472;38.432;2022-10-16T08:31:13;101689.47;;;22.25;27.32
74552;BME280;63025;55.472;38.432;2022-10-16T08:33:42;101685.38;;;20.73;29.11
74552;BME280;63025;55.472;38.432;2022-10-16T08:36:10;101690.66;;;18.93;30.36
74552;BME280;63025;55.472;38.432;2022-10-16T08:38:37;101694.50;;;18.61;32.24
74552;BME280;63025;55.472;38.432;2022-10-16T08:44:05;101678.69;;;17.82;33.26
74552;BME280;63025;55.472;38.432;2022-10-16T08:46:42;101677.41;;;17.20;34.32
74552;BME280;63025;55.472;38.432;2022-10-16T08:49:13;101685.41;;;16.56;35.09
74552;BME280;63025;55.472;38.432;2022-10-16T08:51:40;101684.59;;;15.68;36.46
74552;BME280;63025;55.472;38.432;2022-10-16T08:54:32;101686.75;;;15.03;37.29
74552;BME280;63025;55.472;38.432;2022-10-16T08:57:14;101676.19;;;14.87;38.24
74552;BME280;63025;55.472;38.432;2022-10-16T08:59:42;101680.06;;;14.72;39.09
74552;BME280;63025;55.472;38.432;2022-10-16T09:12:00;101678.84;;;14.10;39.68
74552;BME280;63025;55.472;38.432;2022-10-16T09:14:58;101682.25;;;14.19;39.91
74552;BME280;63025;55.472;38.432;2022-10-16T09:17:37;101688.69;;;14.18;40.08
74552;BME280;63025;55.472;38.432;2022-10-16T09:22:45;101683.09;;;13.98;40.92
74552;BME280;63025;55.472;38.432;2022-10-16T09:25:17;101686.50;;;14.07;40.73
74552;BME280;63025;55.472;38.432;2022-10-16T09:27:46;101678.91;;;14.17;40.53
74552;BME280;63025;55.472;38.432;2022-10-16T09:30:20;101682.63;;;14.16;40.75
74552;BME280;63025;55.472;38.432;2022-10-16T09:32:50;101677.56;;;14.49;40.23
74552;BME280;63025;55.472;38.432;2022-10-16T09:35:22;101682.25;;;14.61;40.16
74552;BME280;63025;55.472;38.432;2022-10-16T09:37:54;101674.91;;;15.11;39.36
74552;BME280;63025;55.472;38.432;2022-10-16T09:40:30;101670.97;;;15.14;39.13
74552;BME280;63025;55.472;38.432;2022-10-16T09:43:12;101673.56;;;14.94;39.08
74552;BME280;63025;55.472;38.432;2022-10-16T09:45:43;101672.31;;;15.31;38.91
74552;BME280;63025;55.472;38.432;2022-10-16T09:48:19;101674.06;;;15.52;38.44
74552;BME280;63025;55.472;38.432;2022-10-16T09:50:59;101664.84;;;15.87;37.84
74552;BME280;63025;55.472;38.432;2022-10-16T09:53:36;101672.16;;;15.93;37.54
74552;BME280;63025;55.472;38.432;2022-10-16T09:56:03;101670.97;;;16.09;37.11
74552;BME280;63025;55.472;38.432;2022-10-16T09:58:31;101676.75;;;15.99;37.29
74552;BME280;63025;55.472;38.432;2022-10-16T10:00:59;101667.69;;;16.79;36.29
74552;BME280;63025;55.472;38.432;2022-10-16T10:03:39;101666.84;;;17.63;34.58
74552;BME280;63025;55.472;38.432;2022-10-16T10:06:25;101674.63;;;19.03;32.99
74552;BME280;63025;55.472;38.432;2022-10-16T10:08:59;101660.41;;;19.20;32.37
74552;BME280;63025;55.472;38.432;2022-10-16T10:11:57;101665.59;;;18.28;32.61
74552;BME280;63025;55.472;38.432;2022-10-16T10:14:47;101662.88;;;18.04;33.33
74552;BME280;63025;55.472;38.432;2022-10-16T10:17:15;101674.84;;;17.38;33.35
74552;BME280;63025;55.472;38.432;2022-10-16T10:19:47;101671.88;;;17.46;33.55
74552;BME280;63025;55.472;38.432;2022-10-16T10:24:44;101657.53;;;17.33;33.54
74552;BME280;63025;55.472;38.432;2022-10-16T10:27:16;101661.81;;;16.89;34.28
74552;BME280;63025;55.472;38.432;2022-10-16T10:30:15;101662.44;;;16.84;34.77
74552;BME280;63025;55.472;38.432;2022-10-16T10:33:04;101661.63;;;16.64;34.97
74552;BME280;63025;55.472;38.432;2022-10-16T10:38:16;101666.19;;;16.57;35.49
74552;BME280;63025;55.472;38.432;2022-10-16T10:40:56;101683.13;;;16.59;35.43
74552;BME280;63025;55.472;38.432;2022-10-16T10:43:58;101660.72;;;17.10;34.35
74552;BME280;63025;55.472;38.432;2022-10-16T10:46:41;101656.72;;;17.77;33.92
74552;BME280;63025;55.472;38.432;2022-10-16T10:54:28;101663.63;;;17.15;33.95
74552;BME280;63025;55.472;38.432;2022-10-16T11:00:38;101656.06;;;17.30;34.14
74552;BME280;63025;55.472;38.432;2022-10-16T11:02:37;101656.31;;;18.11;33.57
74552;BME280;63025;55.472;38.432;2022-10-16T11:07:41;101649.25;;;18.60;32.33
74552;BME280;63025;55.472;38.432;2022-10-16T11:10:21;101658.59;;;18.14;32.29
74552;BME280;63025;55.472;38.432;2022-10-16T11:12:54;101638.59;;;17.57;32.84
74552;BME280;63025;55.472;38.432;2022-10-16T11:15:37;101645.06;;;17.12;33.83
74552;BME280;63025;55.472;38.432;2022-10-16T11:18:13;101653.25;;;16.72;34.08
74552;BME280;63025;55.472;38.432;2022-10-16T11:20:47;101650.97;;;16.76;34.09
74552;BME280;63025;55.472;38.432;2022-10-16T11:23:21;101640.47;;;17.06;33.95
74552;BME280;63025;55.472;38.432;2022-10-16T11:25:50;101642.31;;;17.18;33.74
74552;BME280;63025;55.472;38.432;2022-10-16T11:28:27;101641.03;;;17.28;33.28
74552;BME280;63025;55.472;38.432;2022-10-16T11:31:10;101632.53;;;18.00;32.58
74552;BME280;63025;55.472;38.432;2022-10-16T11:36:29;101630.97;;;18.67;31.53
74552;BME280;63025;55.472;38.432;2022-10-16T11:41:34;101630.28;;;17.90;32.04
74552;BME280;63025;55.472;38.432;2022-10-16T11:44:45;101628.47;;;17.27;33.00
74552;BME280;63025;55.472;38.432;2022-10-16T11:49:39;101618.75;;;15.87;35.37
74552;BME280;63025;55.472;38.432;2022-10-16T11:52:17;101633.72;;;15.70;35.56
74552;BME280;63025;55.472;38.432;2022-10-16T11:57:38;101615.44;;;15.98;35.31
74552;BME280;63025;55.472;38.432;2022-10-16T12:03:11;101626.84;;;15.67;35.47
74552;BME280;63025;55.472;38.432;2022-10-16T12:08:21;101604.94;;;15.15;36.82
74552;BME280;63025;55.472;38.432;2022-10-16T12:10:47;101617.47;;;14.88;36.86
74552;BME280;63025;55.472;38.432;2022-10-16T12:18:37;101610.69;;;15.46;36.51
74552;BME280;63025;55.472;38.432;2022-10-16T12:21:03;101602.16;;;15.01;36.62
74552;BME280;63025;55.472;38.432;2022-10-16T12:23:46;101616.47;;;14.95;37.17
74552;BME280;63025;55.472;38.432;2022-10-16T12:26:13;101605.53;;;14.76;37.05
74552;BME280;63025;55.472;38.432;2022-10-16T12:28:39;101595.72;;;14.75;37.34
74552;BME280;63025;55.472;38.432;2022-10-16T12:31:07;101601.31;;;14.66;37.60
74552;BME280;63025;55.472;38.432;2022-10-16T12:33:37;101604.31;;;14.78;37.42
74552;BME280;63025;55.472;38.432;2022-10-16T12:36:12;101602.59;;;14.71;37.65
74552;BME280;63025;55.472;38.432;2022-10-16T12:38:52;101600.47;;;14.66;37.97
74552;BME280;63025;55.472;38.432;2022-10-16T12:41:26;101593.72;;;14.55;37.91
74552;BME280;63025;55.472;38.432;2022-10-16T12:43:53;101588.34;;;14.34;38.51
74552;BME280;63025;55.472;38.432;2022-10-16T12:46:23;101589.03;;;13.93;38.94
74552;BME280;63025;55.472;38.432;2022-10-16T12:48:50;101593.53;;;13.65;39.63
74552;BME280;63025;55.472;38.432;2022-10-16T12:51:24;101598.00;;;13.37;40.15
74552;BME280;63025;55.472;38.432;2022-10-16T12:54:49;101586.41;;;13.43;40.35
74552;BME280;63025;55.472;38.432;2022-10-16T13:08:03;101600.06;;;14.62;38.98
74552;BME280;63025;55.472;38.432;2022-10-16T13:18:28;101594.16;;;14.52;38.40
74552;BME280;63025;55.472;38.432;2022-10-16T13:24:19;101595.22;;;14.09;39.50
74552;BME280;63025;55.472;38.432;2022-10-16T13:27:09;101590.38;;;14.04;39.21
74552;BME280;63025;55.472;38.432;2022-10-16T13:29:36;101588.13;;;14.08;39.53
74552;BME280;63025;55.472;38.432;2022-10-16T13:32:08;101588.78;;;14.10;39.38
74552;BME280;63025;55.472;38.432;2022-10-16T13:34:44;101588.13;;;13.86;39.61
74552;BME280;63025;55.472;38.432;2022-10-16T13:37:21;101595.22;;;13.87;40.05
74552;BME280;63025;55.472;38.432;2022-10-16T13:39:48;101596.78;;;13.60;40.61
74552;BME280;63025;55.472;38.432;2022-10-16T13:44:49;101602.88;;;12.97;41.47
74552;BME280;63025;55.472;38.432;2022-10-16T13:47:23;101599.28;;;12.67;42.06
74552;BME280;63025;55.472;38.432;2022-10-16T13:50:32;101599.56;;;12.43;42.72
74552;BME280;63025;55.472;38.432;2022-10-16T13:52:51;101600.25;;;12.22;43.14
74552;BME280;63025;55.472;38.432;2022-10-16T13:55:18;101597.09;;;11.96;43.81
74552;BME280;63025;55.472;38.432;2022-10-16T13:57:44;101601.78;;;11.79;44.36
74552;BME280;63025;55.472;38.432;2022-10-16T14:00:23;101589.94;;;11.57;45.05
74552;BME280;63025;55.472;38.432;2022-10-16T14:02:58;101597.97;;;11.34;45.58
74552;BME280;63025;55.472;38.432;2022-10-16T14:05:26;101583.81;;;11.10;46.11
74552;BME280;63025;55.472;38.432;2022-10-16T14:07:53;101589.91;;;10.95;46.70
74552;BME280;63025;55.472;38.432;2022-10-16T14:10:24;101584.94;;;10.76;47.25
74552;BME280;63025;55.472;38.432;2022-10-16T14:13:02;101591.84;;;10.62;47.73
74552;BME280;63025;55.472;38.432;2022-10-16T14:15:30;101600.13;;;10.45;48.26
74552;BME280;63025;55.472;38.432;2022-10-16T14:17:57;101594.28;;;10.25;49.16
74552;BME280;63025;55.472;38.432;2022-10-16T14:20:26;101586.53;;;10.06;49.49
74552;BME280;63025;55.472;38.432;2022-10-16T14:23:29;101593.72;;;9.81;50.39
74552;BME280;63025;55.472;38.432;2022-10-16T14:28:40;101596.69;;;9.45;51.60
74552;BME280;63025;55.472;38.432;2022-10-16T14:31:31;101602.31;;;9.26;51.79
74552;BME280;63025;55.472;38.432;2022-10-16T14:33:58;101600.28;;;9.12;52.05
74552;BME280;63025;55.472;38.432;2022-10-16T14:36:26;101599.03;;;8.98;52.74
74552;BME280;63025;55.472;38.432;2022-10-16T14:41:24;101601.59;;;8.74;53.80
74552;BME280;63025;55.472;38.432;2022-10-16T14:43:52;101603.41;;;8.65;54.37
74552;BME280;63025;55.472;38.432;2022-10-16T14:46:38;101607.88;;;8.57;55.19
74552;BME280;63025;55.472;38.432;2022-10-16T14:51:34;101608.91;;;8.38;55.39